Time;durP1;ratioP1;P1;durP2;ratioP2;P2;SDS_P1;SDS_P2;PMS_P1;PMS_P2;Temp;Humidity;BMP_temperature;BMP_pressure;BME280_temperature;BME280_humidity;BME280_pressure;Samples;Min_cycle;Max_cycle;Signal;HPM_P1;HPM_P2
2021/12/09 00:01:01;;;;;;;71.03;38.35;;;;;;;;;;4915631;29;20024;-64
2021/12/09 00:03:29;;;;;;;70.03;36.58;;;;;;;;;;4915385;29;20111;-64
2021/12/09 00:05:58;;;;;;;62.83;34.45;;;;;;;;;;4915346;29;20103;-62
2021/12/09 00:08:26;;;;;;;58.25;32.80;;;;;;;;;;4915291;29;20131;-65
2021/12/09 00:10:53;;;;;;;59.22;31.40;;;;;;;;;;4914786;29;20034;-62
2021/12/09 00:13:20;;;;;;;56.70;30.13;;;;;;;;;;4915411;29;20024;-62
2021/12/09 00:15:46;;;;;;;55.00;28.73;;;;;;;;;;4915104;29;20773;-63
2021/12/09 00:18:12;;;;;;;54.35;29.17;;;;;;;;;;4915013;29;20095;-63
2021/12/09 00:20:38;;;;;;;48.65;26.77;;;;;;;;;;4914723;29;20111;-65
2021/12/09 00:23:05;;;;;;;46.45;25.45;;;;;;;;;;4915039;29;20036;-62
2021/12/09 00:25:31;;;;;;;43.67;25.77;;;;;;;;;;4914947;29;20404;-62
2021/12/09 00:27:57;;;;;;;45.42;25.05;;;;;;;;;;4915045;29;20035;-62
2021/12/09 00:30:23;;;;;;;46.05;25.98;;;;;;;;;;4915012;29;20031;-63
2021/12/09 00:32:50;;;;;;;43.50;25.60;;;;;;;;;;4915051;29;20092;-62
2021/12/09 00:35:17;;;;;;;42.63;22.65;;;;;;;;;;4913585;29;20392;-62
2021/12/09 00:40:39;;;;;;;44.35;23.42;;;;;;;;;;4874901;29;20044;-62
2021/12/09 00:43:05;;;;;;;40.42;22.95;;;;;;;;;;4874902;29;20485;-66
2021/12/09 00:45:32;;;;;;;41.38;22.52;;;;;;;;;;4875215;29;20049;-62
2021/12/09 00:47:58;;;;;;;36.13;21.30;;;;;;;;;;4875092;29;20025;-62
2021/12/09 00:50:24;;;;;;;42.33;22.33;;;;;;;;;;4874931;29;20123;-63
2021/12/09 00:52:50;;;;;;;39.50;22.25;;;;;;;;;;4875075;29;20144;-63
2021/12/09 00:55:20;;;;;;;35.63;21.05;;;;;;;;;;4875102;29;20112;-62
2021/12/09 00:57:46;;;;;;;35.63;20.38;;;;;;;;;;4875003;29;20723;-62
2021/12/09 01:00:14;;;;;;;37.33;20.63;;;;;;;;;;4874988;29;20071;-63
2021/12/09 01:02:40;;;;;;;35.10;20.45;;;;;;;;;;4874967;29;20052;-64
2021/12/09 01:05:08;;;;;;;34.88;20.15;;;;;;;;;;4874812;29;20045;-67
2021/12/09 01:07:34;;;;;;;35.60;19.48;;;;;;;;;;4874829;29;20940;-68
2021/12/09 01:10:00;;;;;;;33.28;19.40;;;;;;;;;;4874938;29;20049;-63
2021/12/09 01:12:26;;;;;;;31.75;18.55;;;;;;;;;;4874746;29;20116;-63
2021/12/09 01:14:52;;;;;;;34.08;17.25;;;;;;;;;;4874934;29;20033;-64
2021/12/09 01:17:18;;;;;;;33.15;17.70;;;;;;;;;;4899124;29;20112;-67
2021/12/09 01:19:45;;;;;;;32.00;18.70;;;;;;;;;;4914505;29;20059;-63
2021/12/09 01:22:11;;;;;;;29.48;18.45;;;;;;;;;;4917667;29;20032;-66
2021/12/09 01:24:37;;;;;;;30.83;17.67;;;;;;;;;;4918417;29;20043;-63
2021/12/09 01:27:04;;;;;;;32.00;17.70;;;;;;;;;;4918143;29;20032;-62
2021/12/09 01:29:37;;;;;;;29.73;17.67;;;;;;;;;;4918233;29;20028;-62
2021/12/09 01:32:05;;;;;;;29.95;17.73;;;;;;;;;;4917968;29;20024;-63
2021/12/09 01:34:32;;;;;;;29.52;17.55;;;;;;;;;;4918257;29;20392;-62
2021/12/09 01:36:59;;;;;;;28.98;16.38;;;;;;;;;;4917895;29;20027;-64
2021/12/09 01:39:27;;;;;;;29.92;17.13;;;;;;;;;;4917945;29;20795;-63
2021/12/09 01:41:53;;;;;;;27.15;17.08;;;;;;;;;;4917833;29;20483;-63
2021/12/09 01:44:20;;;;;;;27.30;15.93;;;;;;;;;;4917730;29;20131;-63
2021/12/09 01:46:46;;;;;;;29.23;16.60;;;;;;;;;;4917906;29;20055;-63
2021/12/09 01:49:12;;;;;;;27.58;16.85;;;;;;;;;;4917471;29;20063;-62
2021/12/09 01:51:40;;;;;;;28.05;16.73;;;;;;;;;;4917671;29;20056;-64
2021/12/09 01:54:06;;;;;;;28.35;16.48;;;;;;;;;;4917788;29;20084;-62
2021/12/09 01:56:32;;;;;;;27.50;15.80;;;;;;;;;;4917614;29;20028;-62
2021/12/09 01:59:02;;;;;;;28.02;16.55;;;;;;;;;;4917566;29;20071;-62
2021/12/09 02:01:28;;;;;;;28.75;17.08;;;;;;;;;;4917695;29;20044;-62
2021/12/09 02:03:55;;;;;;;28.30;17.48;;;;;;;;;;4917268;29;20033;-64
2021/12/09 02:06:22;;;;;;;33.58;18.40;;;;;;;;;;4917582;29;20083;-63
2021/12/09 02:08:48;;;;;;;30.70;18.33;;;;;;;;;;4917485;29;20119;-63
2021/12/09 02:11:15;;;;;;;32.60;19.35;;;;;;;;;;4917571;29;20494;-64
2021/12/09 02:13:42;;;;;;;32.78;19.08;;;;;;;;;;4917582;29;20087;-64
2021/12/09 02:16:09;;;;;;;34.83;18.55;;;;;;;;;;4917509;29;20107;-63
2021/12/09 02:18:35;;;;;;;32.92;18.67;;;;;;;;;;4917360;29;20131;-62
2021/12/09 02:21:10;;;;;;;31.25;18.35;;;;;;;;;;4917417;29;20040;-62
2021/12/09 02:23:37;;;;;;;33.22;19.30;;;;;;;;;;4917301;29;20036;-62
2021/12/09 02:26:04;;;;;;;32.83;18.38;;;;;;;;;;4917304;29;20083;-62
2021/12/09 02:28:30;;;;;;;33.40;18.23;;;;;;;;;;4917257;29;20056;-62
2021/12/09 02:30:56;;;;;;;33.90;18.38;;;;;;;;;;4917226;29;20032;-66
2021/12/09 02:33:22;;;;;;;33.10;19.13;;;;;;;;;;4916427;29;20428;-62
2021/12/09 02:35:48;;;;;;;31.52;18.45;;;;;;;;;;4917298;29;20429;-63
2021/12/09 02:38:14;;;;;;;29.90;17.83;;;;;;;;;;4916937;29;20024;-61
2021/12/09 02:40:41;;;;;;;29.35;17.67;;;;;;;;;;4916936;29;20032;-64
2021/12/09 02:43:08;;;;;;;29.50;17.25;;;;;;;;;;4917067;29;20024;-61
2021/12/09 02:45:35;;;;;;;28.95;15.85;;;;;;;;;;4916923;29;20039;-61
2021/12/09 02:48:01;;;;;;;25.23;15.38;;;;;;;;;;4916697;29;20063;-64
2021/12/09 02:50:27;;;;;;;24.48;14.73;;;;;;;;;;4916666;29;20043;-62
2021/12/09 02:52:53;;;;;;;23.65;13.82;;;;;;;;;;4916641;29;20079;-66
2021/12/09 02:55:19;;;;;;;22.75;13.30;;;;;;;;;;4916763;29;20032;-63
2021/12/09 02:57:45;;;;;;;23.52;13.82;;;;;;;;;;4916675;29;20063;-62
2021/12/09 03:00:11;;;;;;;23.10;13.68;;;;;;;;;;4916481;29;20032;-62
2021/12/09 03:02:38;;;;;;;26.35;13.88;;;;;;;;;;4918163;29;20032;-62
2021/12/09 03:05:05;;;;;;;24.65;13.80;;;;;;;;;;4917656;29;20156;-66
2021/12/09 03:07:34;;;;;;;21.38;12.60;;;;;;;;;;4916285;29;20028;-63
2021/12/09 03:10:10;;;;;;;24.70;14.60;;;;;;;;;;4916437;29;20028;-62
2021/12/09 03:12:39;;;;;;;23.58;13.85;;;;;;;;;;4916294;29;20028;-62
2021/12/09 03:15:06;;;;;;;24.23;14.10;;;;;;;;;;4916363;29;20142;-62
2021/12/09 03:17:33;;;;;;;25.20;14.18;;;;;;;;;;4916399;29;20131;-63
2021/12/09 03:20:00;;;;;;;21.90;12.30;;;;;;;;;;4916307;29;20034;-62
2021/12/09 03:22:26;;;;;;;24.58;14.15;;;;;;;;;;4916011;29;20036;-63
2021/12/09 03:24:52;;;;;;;20.83;13.45;;;;;;;;;;4916258;29;20044;-62
2021/12/09 03:27:19;;;;;;;24.80;13.75;;;;;;;;;;4915978;29;20487;-62
2021/12/09 03:29:45;;;;;;;25.02;15.20;;;;;;;;;;4915928;29;20043;-66
2021/12/09 03:32:13;;;;;;;29.17;16.95;;;;;;;;;;4916343;29;20035;-62
2021/12/09 03:34:40;;;;;;;28.08;16.70;;;;;;;;;;4916028;29;20064;-63
2021/12/09 03:37:08;;;;;;;29.67;17.33;;;;;;;;;;4916245;29;20036;-62
2021/12/09 03:39:36;;;;;;;27.75;16.58;;;;;;;;;;4915952;29;20020;-62
2021/12/09 03:42:03;;;;;;;29.52;17.23;;;;;;;;;;4915979;29;20416;-63
2021/12/09 03:44:30;;;;;;;30.88;17.60;;;;;;;;;;4915032;29;20044;-62
2021/12/09 03:46:57;;;;;;;27.58;16.35;;;;;;;;;;4915651;29;20047;-63
2021/12/09 03:49:24;;;;;;;29.10;15.65;;;;;;;;;;4915720;29;20032;-62
2021/12/09 03:51:51;;;;;;;29.25;15.52;;;;;;;;;;4915665;29;20047;-64
2021/12/09 03:54:17;;;;;;;27.77;15.55;;;;;;;;;;4915829;29;20507;-62
2021/12/09 03:56:43;;;;;;;25.15;14.20;;;;;;;;;;4915662;29;20055;-63
2021/12/09 03:59:09;;;;;;;26.55;14.98;;;;;;;;;;4915704;29;20111;-64
2021/12/09 04:01:36;;;;;;;28.27;15.75;;;;;;;;;;4915613;29;20028;-63
2021/12/09 04:04:03;;;;;;;26.27;15.45;;;;;;;;;;4915379;29;20481;-62
2021/12/09 04:06:29;;;;;;;28.30;15.18;;;;;;;;;;4915539;29;20098;-64
2021/12/09 04:08:56;;;;;;;31.35;15.57;;;;;;;;;;4915588;29;20512;-64
2021/12/09 04:11:22;;;;;;;33.47;16.45;;;;;;;;;;4915244;29;20067;-62
2021/12/09 04:13:48;;;;;;;31.95;16.00;;;;;;;;;;4915476;29;20032;-62
2021/12/09 04:16:14;;;;;;;32.05;15.48;;;;;;;;;;4915314;29;20596;-63
2021/12/09 04:18:41;;;;;;;27.25;14.73;;;;;;;;;;4915194;29;20043;-65
2021/12/09 04:21:07;;;;;;;23.65;13.65;;;;;;;;;;4915163;29;20032;-63
2021/12/09 04:23:34;;;;;;;29.15;13.85;;;;;;;;;;4915205;29;20039;-63
2021/12/09 04:26:00;;;;;;;26.92;13.57;;;;;;;;;;4915205;29;20028;-62
2021/12/09 04:28:27;;;;;;;23.25;12.85;;;;;;;;;;4915085;29;20053;-63
2021/12/09 04:30:53;;;;;;;23.13;13.32;;;;;;;;;;4915023;29;20063;-63
2021/12/09 04:33:19;;;;;;;22.45;12.90;;;;;;;;;;4914382;29;20160;-63
2021/12/09 04:35:45;;;;;;;23.25;12.95;;;;;;;;;;4914934;29;20388;-63
2021/12/09 04:38:11;;;;;;;20.55;11.80;;;;;;;;;;4914681;29;20031;-62
2021/12/09 04:40:38;;;;;;;20.63;11.82;;;;;;;;;;4915014;29;20531;-63
2021/12/09 04:43:04;;;;;;;21.67;12.45;;;;;;;;;;4915028;29;20098;-63
2021/12/09 04:45:33;;;;;;;21.15;12.77;;;;;;;;;;4914793;29;20048;-66
2021/12/09 04:47:59;;;;;;;20.35;10.60;;;;;;;;;;4914536;29;20421;-63
2021/12/09 04:50:25;;;;;;;19.63;11.02;;;;;;;;;;4914538;29;20428;-64
2021/12/09 04:52:51;;;;;;;19.20;11.35;;;;;;;;;;4914547;29;20548;-62
2021/12/09 04:55:17;;;;;;;18.23;10.48;;;;;;;;;;4914899;29;20055;-63
2021/12/09 04:57:43;;;;;;;16.92;11.25;;;;;;;;;;4914930;29;20139;-64
2021/12/09 05:00:13;;;;;;;18.92;10.65;;;;;;;;;;4914627;29;20447;-62
2021/12/09 05:05:09;;;;;;;20.60;10.60;;;;;;;;;;4914858;29;20575;-63
2021/12/09 05:07:36;;;;;;;18.55;10.32;;;;;;;;;;4914916;29;20031;-62
2021/12/09 05:10:02;;;;;;;18.13;11.07;;;;;;;;;;4914558;29;20032;-63
2021/12/09 05:12:28;;;;;;;16.50;10.95;;;;;;;;;;4914528;29;20432;-64
2021/12/09 05:14:54;;;;;;;17.67;10.57;;;;;;;;;;4914464;29;20139;-62
2021/12/09 05:17:20;;;;;;;17.33;9.95;;;;;;;;;;4914413;29;20048;-63
2021/12/09 05:19:47;;;;;;;18.13;10.82;;;;;;;;;;4914472;29;20033;-62
2021/12/09 05:22:13;;;;;;;14.95;8.98;;;;;;;;;;4914259;29;20024;-66
2021/12/09 05:24:40;;;;;;;16.92;9.60;;;;;;;;;;4914841;29;20047;-62
2021/12/09 05:27:07;;;;;;;21.13;10.68;;;;;;;;;;4914661;29;20092;-62
2021/12/09 05:29:38;;;;;;;16.98;9.88;;;;;;;;;;4914579;29;20032;-66
2021/12/09 05:32:08;;;;;;;15.90;9.75;;;;;;;;;;4914542;29;20056;-63
2021/12/09 05:34:37;;;;;;;15.27;9.05;;;;;;;;;;4914505;29;20404;-63
2021/12/09 05:37:03;;;;;;;14.88;9.43;;;;;;;;;;4914423;29;20500;-63
2021/12/09 05:39:29;;;;;;;17.42;9.40;;;;;;;;;;4914621;29;20037;-64
2021/12/09 05:41:55;;;;;;;15.52;9.13;;;;;;;;;;4914473;29;20036;-62
2021/12/09 05:44:22;;;;;;;15.80;8.85;;;;;;;;;;4914572;29;20055;-62
2021/12/09 05:46:48;;;;;;;15.63;9.57;;;;;;;;;;4914434;29;20106;-63
2021/12/09 05:49:15;;;;;;;13.77;8.65;;;;;;;;;;4914136;29;20033;-63
2021/12/09 05:51:42;;;;;;;16.60;8.85;;;;;;;;;;4914215;29;20052;-68
2021/12/09 05:54:08;;;;;;;14.98;8.95;;;;;;;;;;4914381;29;20037;-62
2021/12/09 05:56:34;;;;;;;16.33;9.10;;;;;;;;;;4914211;29;20039;-62
2021/12/09 05:59:01;;;;;;;17.02;8.25;;;;;;;;;;4914138;29;20036;-63
2021/12/09 06:01:27;;;;;;;15.00;8.18;;;;;;;;;;4914206;29;20036;-65
2021/12/09 06:03:53;;;;;;;16.08;8.63;;;;;;;;;;4913965;29;20036;-62
2021/12/09 06:06:19;;;;;;;14.07;7.75;;;;;;;;;;4913767;29;20059;-63
2021/12/09 06:08:46;;;;;;;12.73;7.57;;;;;;;;;;4899492;29;20036;-63
2021/12/09 06:11:12;;;;;;;14.27;8.27;;;;;;;;;;4917297;29;20027;-63
2021/12/09 06:13:39;;;;;;;14.32;7.95;;;;;;;;;;4917705;29;20021;-65
2021/12/09 06:16:05;;;;;;;14.93;8.15;;;;;;;;;;4916990;29;20024;-62
2021/12/09 06:18:32;;;;;;;13.93;8.57;;;;;;;;;;4917028;29;20028;-68
2021/12/09 06:20:58;;;;;;;14.35;7.72;;;;;;;;;;4917071;29;20544;-66
2021/12/09 06:23:24;;;;;;;16.75;8.60;;;;;;;;;;4916940;29;20059;-64
2021/12/09 06:25:50;;;;;;;14.45;7.82;;;;;;;;;;4916906;29;20040;-65
2021/12/09 06:28:17;;;;;;;14.00;7.45;;;;;;;;;;4915946;29;20028;-63
2021/12/09 06:30:44;;;;;;;13.32;7.60;;;;;;;;;;4916363;29;20035;-62
2021/12/09 06:33:10;;;;;;;12.32;7.38;;;;;;;;;;4915409;29;20024;-61
2021/12/09 06:35:37;;;;;;;13.63;7.68;;;;;;;;;;4914712;29;20032;-64
2021/12/09 06:38:04;;;;;;;14.07;7.97;;;;;;;;;;4919545;29;20028;-61
2021/12/09 06:40:31;;;;;;;15.25;8.15;;;;;;;;;;4914846;29;20115;-61
2021/12/09 06:42:57;;;;;;;14.50;8.10;;;;;;;;;;4914377;29;20428;-61
2021/12/09 06:45:24;;;;;;;15.70;7.72;;;;;;;;;;4915019;29;20043;-63
2021/12/09 06:47:50;;;;;;;17.35;8.30;;;;;;;;;;4914436;29;20051;-62
2021/12/09 06:50:18;;;;;;;14.40;8.10;;;;;;;;;;4914619;29;20031;-62
2021/12/09 06:52:47;;;;;;;14.40;8.07;;;;;;;;;;4914334;29;20519;-61
2021/12/09 06:55:14;;;;;;;14.40;8.10;;;;;;;;;;4912097;29;20024;-62
2021/12/09 06:57:43;;;;;;;13.10;7.82;;;;;;;;;;4915883;29;20403;-64
2021/12/09 07:00:11;;;;;;;17.15;8.15;;;;;;;;;;4914356;29;20024;-61
2021/12/09 07:02:37;;;;;;;20.67;9.68;;;;;;;;;;4914302;29;20036;-62
2021/12/09 07:05:04;;;;;;;17.58;9.27;;;;;;;;;;4914704;29;20183;-60
2021/12/09 07:07:30;;;;;;;16.45;8.82;;;;;;;;;;4914865;29;20103;-63
2021/12/09 07:09:56;;;;;;;18.92;8.80;;;;;;;;;;4915027;29;20028;-62
2021/12/09 07:12:23;;;;;;;22.55;8.10;;;;;;;;;;4914979;29;20028;-60
2021/12/09 07:14:49;;;;;;;17.77;8.88;;;;;;;;;;4914438;29;20761;-62
2021/12/09 07:17:16;;;;;;;17.55;9.85;;;;;;;;;;4914844;29;20028;-63
2021/12/09 07:19:42;;;;;;;19.73;9.52;;;;;;;;;;4914551;29;20054;-60
2021/12/09 07:22:08;;;;;;;21.05;10.82;;;;;;;;;;4914763;29;20028;-61
2021/12/09 07:24:34;;;;;;;19.98;9.55;;;;;;;;;;4914978;29;20040;-60
2021/12/09 07:27:01;;;;;;;19.90;9.90;;;;;;;;;;4915172;29;20449;-62
2021/12/09 07:29:27;;;;;;;16.40;9.77;;;;;;;;;;4916065;29;20032;-62
2021/12/09 07:31:54;;;;;;;16.65;9.10;;;;;;;;;;4915724;29;20027;-62
2021/12/09 07:34:21;;;;;;;22.48;9.80;;;;;;;;;;4915549;29;20024;-61
2021/12/09 07:36:47;;;;;;;16.00;9.23;;;;;;;;;;4913350;29;20059;-61
2021/12/09 07:39:13;;;;;;;14.60;7.97;;;;;;;;;;4914008;29;20032;-61
2021/12/09 07:41:39;;;;;;;15.50;8.35;;;;;;;;;;4913584;29;20503;-62
2021/12/09 07:44:05;;;;;;;16.23;7.70;;;;;;;;;;4913788;29;20083;-61
2021/12/09 07:46:35;;;;;;;18.67;8.55;;;;;;;;;;4914693;29;20055;-62
2021/12/09 07:49:03;;;;;;;17.20;8.50;;;;;;;;;;4915008;29;20538;-64
2021/12/09 07:51:29;;;;;;;21.80;10.48;;;;;;;;;;4914169;29;20155;-63
2021/12/09 07:53:55;;;;;;;25.30;13.10;;;;;;;;;;4914439;29;20099;-61
2021/12/09 07:56:21;;;;;;;28.48;13.70;;;;;;;;;;4916926;29;20032;-62
2021/12/09 07:58:47;;;;;;;26.45;13.05;;;;;;;;;;4915998;29;20447;-60
2021/12/09 08:01:13;;;;;;;22.42;12.35;;;;;;;;;;4914683;29;20060;-62
2021/12/09 08:03:39;;;;;;;25.42;13.75;;;;;;;;;;4914186;29;20028;-61
2021/12/09 08:06:09;;;;;;;37.90;17.15;;;;;;;;;;4913813;29;20040;-61
2021/12/09 08:08:36;;;;;;;37.55;18.10;;;;;;;;;;4919962;29;20030;-62
2021/12/09 08:11:02;;;;;;;35.10;17.73;;;;;;;;;;4914862;29;20024;-61
2021/12/09 08:13:28;;;;;;;39.45;17.40;;;;;;;;;;4913459;29;20047;-64
2021/12/09 08:15:54;;;;;;;39.47;18.33;;;;;;;;;;4913251;29;20036;-63
2021/12/09 08:20:50;;;;;;;36.03;17.15;;;;;;;;;;4913841;29;20084;-63
2021/12/09 08:23:16;;;;;;;38.22;17.25;;;;;;;;;;4912009;29;20083;-62
2021/12/09 08:25:43;;;;;;;35.00;17.15;;;;;;;;;;4913759;29;20040;-62
2021/12/09 08:28:09;;;;;;;35.35;16.70;;;;;;;;;;4914123;29;20444;-61
2021/12/09 08:30:37;;;;;;;35.83;15.95;;;;;;;;;;4913216;29;20039;-64
2021/12/09 08:33:05;;;;;;;36.67;15.88;;;;;;;;;;4914255;29;20024;-61
2021/12/09 08:35:31;;;;;;;27.48;13.27;;;;;;;;;;4920693;29;20364;-60
2021/12/09 08:37:58;;;;;;;25.13;13.23;;;;;;;;;;4914825;29;20071;-63
2021/12/09 08:40:24;;;;;;;23.73;13.40;;;;;;;;;;4914255;29;20075;-61
2021/12/09 08:42:50;;;;;;;30.33;15.15;;;;;;;;;;4914984;29;20039;-64
2021/12/09 08:45:17;;;;;;;32.22;14.55;;;;;;;;;;4914075;29;20067;-63
2021/12/09 08:47:44;;;;;;;26.60;13.68;;;;;;;;;;4914875;29;20460;-63
2021/12/09 08:50:12;;;;;;;27.55;14.45;;;;;;;;;;4914402;29;20036;-63
2021/12/09 08:52:38;;;;;;;29.27;15.07;;;;;;;;;;4914457;29;20071;-62
2021/12/09 08:55:05;;;;;;;32.35;16.73;;;;;;;;;;4914565;29;20391;-63
2021/12/09 08:57:32;;;;;;;36.97;18.85;;;;;;;;;;4914289;29;20156;-62
2021/12/09 08:59:59;;;;;;;39.97;18.85;;;;;;;;;;4913850;29;20029;-62
2021/12/09 09:02:26;;;;;;;43.55;19.83;;;;;;;;;;4914280;29;20036;-63
2021/12/09 09:04:52;;;;;;;44.97;21.58;;;;;;;;;;4914278;29;20511;-62
2021/12/09 09:07:18;;;;;;;42.65;20.27;;;;;;;;;;4914377;29;20028;-63
2021/12/09 09:09:45;;;;;;;47.60;22.67;;;;;;;;;;4912235;29;20380;-62
2021/12/09 09:12:13;;;;;;;41.13;20.90;;;;;;;;;;4912792;29;20024;-63
2021/12/09 09:14:41;;;;;;;40.60;20.40;;;;;;;;;;4914243;29;20755;-61
2021/12/09 09:17:07;;;;;;;32.78;17.42;;;;;;;;;;4914602;29;20396;-63
2021/12/09 09:19:33;;;;;;;31.25;16.58;;;;;;;;;;4914839;29;20036;-63
2021/12/09 09:21:59;;;;;;;32.33;14.43;;;;;;;;;;4914236;29;20107;-62
2021/12/09 09:24:25;;;;;;;33.33;15.70;;;;;;;;;;4913893;29;20033;-64
2021/12/09 09:26:51;;;;;;;32.95;17.15;;;;;;;;;;4912552;29;20810;-62
2021/12/09 09:29:18;;;;;;;29.80;15.30;;;;;;;;;;4910597;29;20037;-61
2021/12/09 09:31:45;;;;;;;29.98;13.70;;;;;;;;;;4912452;29;20035;-63
2021/12/09 09:34:12;;;;;;;24.73;13.23;;;;;;;;;;4911834;29;20380;-63
2021/12/09 09:36:43;;;;;;;22.73;11.20;;;;;;;;;;4912288;29;20028;-61
2021/12/09 09:39:20;;;;;;;19.23;11.60;;;;;;;;;;4912584;29;20087;-64
2021/12/09 09:41:59;;;;;;;20.58;10.93;;;;;;;;;;4912614;29;20047;-61
2021/12/09 09:44:32;;;;;;;22.05;10.93;;;;;;;;;;4916455;29;20044;-60
2021/12/09 09:47:00;;;;;;;22.13;11.07;;;;;;;;;;4915538;29;20408;-60
2021/12/09 09:49:26;;;;;;;20.05;9.90;;;;;;;;;;4916106;29;20036;-60
2021/12/09 09:51:52;;;;;;;18.05;9.27;;;;;;;;;;4916100;29;20085;-60
2021/12/09 09:54:18;;;;;;;19.50;10.27;;;;;;;;;;4913872;29;20492;-61
2021/12/09 09:56:44;;;;;;;18.80;10.40;;;;;;;;;;4918442;29;20038;-64
2021/12/09 09:59:17;;;;;;;18.48;10.23;;;;;;;;;;4925654;29;20036;-62
2021/12/09 10:01:43;;;;;;;22.90;11.10;;;;;;;;;;4923679;29;20472;-61
2021/12/09 10:04:10;;;;;;;23.00;11.85;;;;;;;;;;4921384;29;20047;-61
2021/12/09 10:06:37;;;;;;;23.70;12.02;;;;;;;;;;4928006;29;20031;-60
2021/12/09 10:09:07;;;;;;;21.30;11.38;;;;;;;;;;4936136;29;20531;-60
2021/12/09 10:11:33;;;;;;;20.88;10.95;;;;;;;;;;4936306;29;20042;-61
2021/12/09 10:14:16;;;;;;;22.42;11.60;;;;;;;;;;4936231;29;20039;-61
2021/12/09 10:16:43;;;;;;;19.35;10.48;;;;;;;;;;4936566;29;20036;-61
2021/12/09 10:19:16;;;;;;;17.75;10.52;;;;;;;;;;4936429;29;20032;-61
2021/12/09 10:21:43;;;;;;;21.02;11.52;;;;;;;;;;4936046;29;20393;-61
2021/12/09 10:24:10;;;;;;;18.73;10.65;;;;;;;;;;4935652;29;20090;-62
2021/12/09 10:26:41;;;;;;;20.70;10.90;;;;;;;;;;4936443;29;20035;-61
2021/12/09 10:29:09;;;;;;;18.58;9.90;;;;;;;;;;4935807;29;20051;-61
2021/12/09 10:31:54;;;;;;;17.08;8.82;;;;;;;;;;4936128;29;20039;-61
2021/12/09 10:34:41;;;;;;;15.90;9.30;;;;;;;;;;4935182;29;20086;-60
2021/12/09 10:37:07;;;;;;;18.48;9.85;;;;;;;;;;4935824;29;20074;-62
2021/12/09 10:39:35;;;;;;;19.75;9.45;;;;;;;;;;4935849;29;20035;-61
2021/12/09 10:42:05;;;;;;;16.52;9.27;;;;;;;;;;4935610;29;20070;-61
2021/12/09 10:44:36;;;;;;;17.70;9.63;;;;;;;;;;4935595;29;20123;-62
2021/12/09 10:50:10;;;;;;;28.95;11.75;;;;;;;;;;4911891;29;20055;-61
2021/12/09 10:52:41;;;;;;;18.33;9.65;;;;;;;;;;4935232;29;20091;-61
2021/12/09 10:55:28;;;;;;;15.83;8.73;;;;;;;;;;4935240;29;20020;-63
2021/12/09 10:58:02;;;;;;;19.88;9.63;;;;;;;;;;4935349;29;20286;-61
2021/12/09 11:00:30;;;;;;;18.30;10.15;;;;;;;;;;4935184;29;20028;-61
2021/12/09 11:02:58;;;;;;;22.25;11.20;;;;;;;;;;4935442;29;20098;-61
2021/12/09 11:05:24;;;;;;;17.98;10.10;;;;;;;;;;4935158;29;20043;-61
2021/12/09 11:07:50;;;;;;;20.77;10.75;;;;;;;;;;4934938;29;20027;-61
2021/12/09 11:10:20;;;;;;;19.85;11.07;;;;;;;;;;4935334;29;20036;-62
2021/12/09 11:12:58;;;;;;;18.77;10.40;;;;;;;;;;4935536;29;20066;-62
2021/12/09 11:15:43;;;;;;;20.50;10.90;;;;;;;;;;4935709;29;20777;-63
2021/12/09 11:18:34;;;;;;;24.67;13.15;;;;;;;;;;4933943;29;20032;-63
2021/12/09 11:21:01;;;;;;;23.38;12.43;;;;;;;;;;4935336;29;20051;-62
2021/12/09 11:23:38;;;;;;;22.25;11.98;;;;;;;;;;4934972;29;20024;-64
2021/12/09 11:26:26;;;;;;;21.20;11.15;;;;;;;;;;4934998;29;20048;-64
2021/12/09 11:29:00;;;;;;;20.88;10.85;;;;;;;;;;4935099;29;20019;-64
2021/12/09 11:31:30;;;;;;;20.27;10.13;;;;;;;;;;4934866;29;20111;-62
2021/12/09 11:34:05;;;;;;;20.50;10.73;;;;;;;;;;4934724;29;20020;-64
2021/12/09 11:36:46;;;;;;;19.23;10.30;;;;;;;;;;4934328;29;20051;-63
2021/12/09 11:39:17;;;;;;;24.65;12.05;;;;;;;;;;4932816;29;20119;-66
2021/12/09 11:41:44;;;;;;;17.50;9.10;;;;;;;;;;4934433;29;20019;-62
2021/12/09 11:44:11;;;;;;;24.15;11.40;;;;;;;;;;4934531;29;20282;-64
2021/12/09 11:46:38;;;;;;;19.40;11.20;;;;;;;;;;4934860;29;20055;-63
2021/12/09 11:49:05;;;;;;;19.00;10.48;;;;;;;;;;4933868;29;20079;-63
2021/12/09 11:51:31;;;;;;;16.30;9.75;;;;;;;;;;4934332;29;20562;-62
2021/12/09 11:54:01;;;;;;;21.40;10.35;;;;;;;;;;4934245;29;20063;-63
2021/12/09 11:56:42;;;;;;;20.50;10.23;;;;;;;;;;4934947;29;20050;-62
2021/12/09 12:13:34;;;;;;;20.38;10.35;;;;;;;;;;4896237;29;20081;-63
2021/12/09 12:16:21;;;;;;;22.48;11.00;;;;;;;;;;4896276;29;20024;-63
2021/12/09 12:18:59;;;;;;;22.85;11.63;;;;;;;;;;4895986;29;20135;-63
2021/12/09 12:21:50;;;;;;;21.52;11.07;;;;;;;;;;4896071;29;20096;-61
2021/12/09 12:25:00;;;;;;;21.10;11.23;;;;;;;;;;4896569;29;20145;-65
2021/12/09 12:27:41;;;;;;;21.80;10.20;;;;;;;;;;4896332;29;20037;-62
2021/12/09 12:30:35;;;;;;;18.05;9.38;;;;;;;;;;4896030;29;20043;-63
2021/12/09 12:40:35;;;;;;;22.00;11.13;;;;;;;;;;4914502;29;20091;-61
2021/12/09 12:48:12;;;;;;;21.15;10.57;;;;;;;;;;4913332;29;20028;-62
2021/12/09 12:50:38;;;;;;;21.73;10.65;;;;;;;;;;4914220;29;20099;-66
2021/12/09 12:53:23;;;;;;;20.88;11.07;;;;;;;;;;4913603;29;20052;-61
2021/12/09 12:56:10;;;;;;;17.98;9.45;;;;;;;;;;4912472;29;20339;-60
2021/12/09 12:58:36;;;;;;;19.95;10.07;;;;;;;;;;4910444;29;20028;-61
2021/12/09 13:01:15;;;;;;;14.85;8.38;;;;;;;;;;4914221;29;20036;-62
2021/12/09 13:03:47;;;;;;;15.95;8.48;;;;;;;;;;4913551;29;20048;-62
2021/12/09 13:06:37;;;;;;;14.38;7.70;;;;;;;;;;4913985;29;20103;-61
2021/12/09 13:09:21;;;;;;;12.27;7.25;;;;;;;;;;4912374;29;20036;-65
2021/12/09 13:11:52;;;;;;;11.38;7.05;;;;;;;;;;4912586;29;20535;-64
2021/12/09 13:14:25;;;;;;;17.17;9.27;;;;;;;;;;4905008;29;20476;-61
2021/12/09 13:17:16;;;;;;;22.25;11.40;;;;;;;;;;4914979;29;20322;-64
2021/12/09 13:20:07;;;;;;;25.55;12.45;;;;;;;;;;4916452;29;20079;-63
2021/12/09 13:22:39;;;;;;;20.33;10.48;;;;;;;;;;4916469;29;20070;-63
2021/12/09 13:25:25;;;;;;;21.50;11.23;;;;;;;;;;4913599;29;20047;-63
2021/12/09 13:28:00;;;;;;;21.13;10.80;;;;;;;;;;4916316;29;20029;-63
2021/12/09 13:46:38;;;;;;;18.25;8.98;;;;;;;;;;4917884;29;20043;-63
2021/12/09 13:49:05;;;;;;;15.38;8.38;;;;;;;;;;4917420;29;20199;-64
2021/12/09 13:54:29;;;;;;;18.05;9.77;;;;;;;;;;4935467;29;20030;-61
2021/12/09 13:56:59;;;;;;;18.98;10.35;;;;;;;;;;4922300;29;20532;-62
2021/12/09 13:59:27;;;;;;;21.80;11.23;;;;;;;;;;4917961;29;20469;-63
2021/12/09 14:01:54;;;;;;;20.95;10.82;;;;;;;;;;4917755;29;20061;-61
2021/12/09 14:04:24;;;;;;;23.42;11.82;;;;;;;;;;4917349;29;20047;-61
2021/12/09 14:06:58;;;;;;;29.63;12.70;;;;;;;;;;4917532;29;20555;-61
2021/12/09 14:09:26;;;;;;;21.92;10.85;;;;;;;;;;4917539;29;20500;-63
2021/12/09 14:11:52;;;;;;;19.88;10.68;;;;;;;;;;4917410;29;20076;-63
2021/12/09 14:14:23;;;;;;;15.18;8.30;;;;;;;;;;4917571;29;20393;-63
2021/12/09 14:22:02;;;;;;;18.88;9.02;;;;;;;;;;4916409;29;20033;-62
2021/12/09 14:24:30;;;;;;;24.40;11.50;;;;;;;;;;4916074;29;20040;-59
2021/12/09 14:26:58;;;;;;;29.00;14.75;;;;;;;;;;4916002;29;20079;-64
2021/12/09 14:29:25;;;;;;;32.20;16.77;;;;;;;;;;4915409;29;20059;-60
2021/12/09 14:31:53;;;;;;;36.03;18.65;;;;;;;;;;4914725;29;20111;-61
2021/12/09 14:34:20;;;;;;;32.20;16.38;;;;;;;;;;4916582;29;20032;-62
2021/12/09 14:36:46;;;;;;;29.05;15.68;;;;;;;;;;4917179;29;20043;-62
2021/12/09 14:39:14;;;;;;;30.67;15.85;;;;;;;;;;4915822;29;20063;-61
2021/12/09 14:41:41;;;;;;;30.90;16.42;;;;;;;;;;4915235;29;20544;-62
2021/12/09 14:44:09;;;;;;;29.70;15.70;;;;;;;;;;4917171;29;20020;-62
2021/12/09 14:46:37;;;;;;;27.65;14.32;;;;;;;;;;4915689;29;20087;-62
2021/12/09 14:49:23;;;;;;;29.65;15.70;;;;;;;;;;4915984;29;20024;-60
2021/12/09 14:51:50;;;;;;;30.58;15.68;;;;;;;;;;4914720;29;20103;-62
2021/12/09 14:54:17;;;;;;;32.50;16.92;;;;;;;;;;4915410;29;20029;-61
2021/12/09 14:56:45;;;;;;;31.20;16.98;;;;;;;;;;4915004;29;20039;-61
2021/12/09 14:59:28;;;;;;;33.15;17.40;;;;;;;;;;4915290;29;20072;-63
2021/12/09 15:02:04;;;;;;;32.67;17.63;;;;;;;;;;4913948;29;20024;-59
2021/12/09 15:04:34;;;;;;;30.05;17.02;;;;;;;;;;4913412;29;20390;-63
2021/12/09 15:07:05;;;;;;;33.92;17.17;;;;;;;;;;4915554;29;20031;-65
2021/12/09 15:09:31;;;;;;;38.35;19.30;;;;;;;;;;4915143;29;20032;-62
2021/12/09 15:12:00;;;;;;;37.30;19.63;;;;;;;;;;4917661;29;20531;-61
2021/12/09 15:14:35;;;;;;;46.03;22.05;;;;;;;;;;4915453;29;20031;-62
2021/12/09 15:17:04;;;;;;;39.38;21.33;;;;;;;;;;4916048;29;20027;-65
2021/12/09 15:19:31;;;;;;;42.80;22.45;;;;;;;;;;4916099;29;20518;-61
2021/12/09 15:22:01;;;;;;;41.72;22.42;;;;;;;;;;4913865;29;20040;-63
2021/12/09 15:24:27;;;;;;;43.38;22.88;;;;;;;;;;4914207;29;20103;-62
2021/12/09 15:26:53;;;;;;;39.95;22.75;;;;;;;;;;4913983;29;20032;-61
2021/12/09 15:29:22;;;;;;;47.95;25.90;;;;;;;;;;4913624;29;20468;-61
2021/12/09 15:31:59;;;;;;;46.50;25.15;;;;;;;;;;4913154;29;20036;-61